createdAt,value
2023-05-09T00:01:19.857Z,17.75
2023-05-09T00:03:46.302Z,16.35
2023-05-09T00:06:13.438Z,22.40
2023-05-09T00:08:41.688Z,16.05
2023-05-09T00:11:08.045Z,18.55
2023-05-09T00:13:34.704Z,16.55
2023-05-09T00:16:01.797Z,18.50
2023-05-09T00:18:29.892Z,15.48
2023-05-09T00:20:56.658Z,16.88
2023-05-09T00:23:23.938Z,15.80
2023-05-09T00:25:50.736Z,17.30
2023-05-09T00:28:17.169Z,17.15
2023-05-09T00:30:44.695Z,14.80
2023-05-09T00:33:11.179Z,15.25
2023-05-09T00:35:37.617Z,15.35
2023-05-09T00:38:04.414Z,16.10
2023-05-09T00:40:31.474Z,16.15
2023-05-09T00:43:00.316Z,14.98
2023-05-09T00:45:26.751Z,15.05
2023-05-09T00:47:53.478Z,15.77
2023-05-09T00:50:20.546Z,12.70
2023-05-09T00:52:46.959Z,14.10
2023-05-09T00:55:13.797Z,16.15
2023-05-09T00:57:40.911Z,13.00
2023-05-09T01:00:12.813Z,14.85
2023-05-09T01:02:51.541Z,16.00
2023-05-09T01:05:18.995Z,16.65
2023-05-09T01:08:07.929Z,17.83
2023-05-09T01:10:54.118Z,12.68
2023-05-09T01:13:28.621Z,15.25
2023-05-09T01:16:16.603Z,13.60
2023-05-09T01:18:46.427Z,18.55
2023-05-09T01:21:28.061Z,15.65
2023-05-09T01:24:13.281Z,13.90
2023-05-09T01:27:33.961Z,18.52
2023-05-09T01:30:05.068Z,14.85
2023-05-09T01:32:36.280Z,17.27
2023-05-09T01:35:05.066Z,18.40
2023-05-09T01:37:34.208Z,15.55
2023-05-09T01:40:08.578Z,16.40
2023-05-09T01:42:45.394Z,15.63
2023-05-09T01:45:14.561Z,16.17
2023-05-09T01:47:41.905Z,15.75
2023-05-09T01:50:11.407Z,15.02
2023-05-09T01:52:40.436Z,17.20
2023-05-09T01:55:08.521Z,19.20
2023-05-09T01:57:37.308Z,18.63
2023-05-09T02:00:05.550Z,15.88
2023-05-09T02:02:32.737Z,20.75
2023-05-09T02:05:00.231Z,17.70
2023-05-09T02:07:29.629Z,20.00
2023-05-09T02:09:58.097Z,16.05
2023-05-09T02:12:24.536Z,19.95
2023-05-09T02:14:51.648Z,18.08
2023-05-09T02:17:18.790Z,17.38
2023-05-09T02:19:45.474Z,17.23
2023-05-09T02:22:13.406Z,34.30
2023-05-09T02:24:40.846Z,27.63
2023-05-09T02:27:09.069Z,26.63
2023-05-09T02:29:40.904Z,18.52
2023-05-09T02:32:16.315Z,20.90
2023-05-09T02:34:45.725Z,21.42
2023-05-09T02:37:13.339Z,16.30
2023-05-09T02:39:39.800Z,16.50
2023-05-09T02:42:08.392Z,13.48
2023-05-09T02:44:34.872Z,12.35
2023-05-09T02:47:02.682Z,14.13
2023-05-09T02:49:32.484Z,15.02
2023-05-09T02:51:59.568Z,15.50
2023-05-09T02:54:25.981Z,13.75
2023-05-09T02:56:53.091Z,14.82
2023-05-09T02:59:20.252Z,14.68
2023-05-09T03:01:46.796Z,18.23
2023-05-09T03:04:13.798Z,18.13
2023-05-09T03:06:40.276Z,20.60
2023-05-09T03:09:07.070Z,21.70
2023-05-09T03:11:34.080Z,21.25
2023-05-09T03:14:00.401Z,19.23
2023-05-09T03:16:26.818Z,20.25
2023-05-09T03:18:53.595Z,21.92
2023-05-09T03:21:19.993Z,21.98
2023-05-09T03:23:46.330Z,20.05
2023-05-09T03:26:13.185Z,20.75
2023-05-09T03:28:39.652Z,21.65
2023-05-09T03:31:06.378Z,18.77
2023-05-09T03:33:33.505Z,20.42
2023-05-09T03:35:59.820Z,24.13
2023-05-09T03:38:26.149Z,21.35
2023-05-09T03:40:54.052Z,20.42
2023-05-09T03:43:20.404Z,24.73
2023-05-09T03:45:46.713Z,28.70
2023-05-09T03:48:13.701Z,23.70
2023-05-09T03:50:40.861Z,28.35
2023-05-09T03:53:07.272Z,31.65
2023-05-09T03:55:34.100Z,25.55
2023-05-09T03:58:00.540Z,26.58
2023-05-09T04:00:27.063Z,26.50
2023-05-09T04:02:53.957Z,26.73
2023-05-09T04:05:20.894Z,24.90
2023-05-09T04:07:47.239Z,24.33
2023-05-09T04:10:15.627Z,23.63
2023-05-09T04:12:42.020Z,25.75
2023-05-09T04:15:09.074Z,28.13
2023-05-09T04:17:35.860Z,28.33
2023-05-09T04:20:02.993Z,31.88
2023-05-09T04:22:29.332Z,27.95
2023-05-09T04:24:56.552Z,34.95
2023-05-09T04:27:23.677Z,30.55
2023-05-09T04:29:50.073Z,30.73
2023-05-09T04:32:16.824Z,30.05
2023-05-09T04:34:43.198Z,43.97
2023-05-09T04:37:09.766Z,31.30
2023-05-09T04:39:36.561Z,26.05
2023-05-09T04:42:02.923Z,22.13
2023-05-09T04:44:33.301Z,29.80
2023-05-09T04:47:00.002Z,25.20
2023-05-09T04:49:26.437Z,22.80
2023-05-09T04:51:52.753Z,27.30
2023-05-09T04:54:19.534Z,26.45
2023-05-09T04:56:46.807Z,25.15
2023-05-09T04:59:14.192Z,29.63
2023-05-09T05:01:41.229Z,29.75
2023-05-09T05:04:07.594Z,35.22
2023-05-09T05:06:33.908Z,37.75
2023-05-09T05:09:00.644Z,38.60
2023-05-09T05:11:27.028Z,37.88
2023-05-09T05:13:53.515Z,35.17
2023-05-09T05:16:20.964Z,34.05
2023-05-09T05:18:47.340Z,32.45
2023-05-09T05:21:13.698Z,30.80
2023-05-09T05:23:40.434Z,29.35
2023-05-09T05:26:06.778Z,29.10
2023-05-09T05:28:33.122Z,28.25
2023-05-09T05:30:59.882Z,31.55
2023-05-09T05:33:26.282Z,29.33
2023-05-09T05:35:52.602Z,28.38
2023-05-09T05:38:19.412Z,29.48
2023-05-09T05:40:45.803Z,28.75
2023-05-09T05:43:12.122Z,30.30
2023-05-09T05:45:39.075Z,31.73
2023-05-09T05:48:05.672Z,27.65
2023-05-09T05:50:32.132Z,24.00
2023-05-09T05:52:58.852Z,23.00
2023-05-09T05:55:25.238Z,24.73
2023-05-09T05:57:51.597Z,24.20
2023-05-09T06:00:18.424Z,26.73
2023-05-09T06:02:45.151Z,22.63
2023-05-09T06:05:11.808Z,29.85
2023-05-09T06:07:38.682Z,23.88
2023-05-09T06:10:05.647Z,18.98
2023-05-09T06:12:32.056Z,21.05
2023-05-09T06:14:58.775Z,17.67
2023-05-09T06:17:25.240Z,20.05
2023-05-09T06:19:51.634Z,20.75
2023-05-09T06:22:18.354Z,19.92
2023-05-09T06:24:44.682Z,19.42
2023-05-09T06:27:11.191Z,21.88
2023-05-09T06:29:37.980Z,19.23
2023-05-09T06:32:04.565Z,19.17
2023-05-09T06:34:31.018Z,19.55
2023-05-09T06:36:57.685Z,31.77
2023-05-09T06:39:24.049Z,16.60
2023-05-09T06:41:50.483Z,18.48
2023-05-09T06:44:17.242Z,20.63
2023-05-09T06:46:43.588Z,18.35
2023-05-09T06:49:10.829Z,18.92
2023-05-09T06:51:37.561Z,17.75
2023-05-09T06:54:04.099Z,17.92
2023-05-09T06:56:31.463Z,15.23
2023-05-09T06:58:58.604Z,16.40
2023-05-09T07:01:24.973Z,18.77
2023-05-09T07:03:52.105Z,18.25
2023-05-09T07:06:18.962Z,16.85
2023-05-09T07:08:45.845Z,126.63
2023-05-09T07:11:12.201Z,16.13
2023-05-09T07:13:38.808Z,17.08
2023-05-09T07:16:05.587Z,17.83
2023-05-09T07:18:31.992Z,17.83
2023-05-09T07:20:58.661Z,17.65
2023-05-09T07:23:25.985Z,17.13
2023-05-09T07:25:58.766Z,20.67
2023-05-09T07:28:25.933Z,18.75
2023-05-09T07:30:52.326Z,17.35
2023-05-09T07:33:19.029Z,23.60
2023-05-09T07:35:45.372Z,18.67
2023-05-09T07:38:12.444Z,18.98
2023-05-09T07:40:39.228Z,16.25
2023-05-09T07:43:05.558Z,17.30
2023-05-09T07:45:32.393Z,19.63
2023-05-09T07:47:59.163Z,16.15
2023-05-09T07:50:26.034Z,19.75
2023-05-09T07:52:52.659Z,22.13
2023-05-09T07:55:19.156Z,17.08
2023-05-09T07:57:45.545Z,19.45
2023-05-09T08:00:12.513Z,19.15
2023-05-09T08:02:39.049Z,17.05
2023-05-09T08:05:06.526Z,17.85
2023-05-09T08:07:32.877Z,15.60
2023-05-09T08:09:59.614Z,20.30
2023-05-09T08:12:25.987Z,18.23
2023-05-09T08:14:52.345Z,17.92
2023-05-09T08:17:18.974Z,18.42
2023-05-09T08:19:45.328Z,18.05
2023-05-09T08:22:20.729Z,15.27
2023-05-09T08:24:47.717Z,18.23
2023-05-09T08:27:14.312Z,17.83
2023-05-09T08:29:41.496Z,15.40
2023-05-09T08:32:08.774Z,21.30
2023-05-09T08:34:35.605Z,17.08
2023-05-09T08:37:03.493Z,19.25
2023-05-09T08:39:30.880Z,19.35
2023-05-09T08:42:01.851Z,17.33
2023-05-09T08:44:29.954Z,18.20
2023-05-09T08:47:01.981Z,16.33
2023-05-09T08:49:28.735Z,19.67
2023-05-09T08:51:56.078Z,18.38
2023-05-09T08:54:24.295Z,18.80
2023-05-09T08:56:51.814Z,18.80
2023-05-09T08:59:18.913Z,19.52
2023-05-09T09:01:45.578Z,19.05
2023-05-09T09:04:12.001Z,19.27
2023-05-09T09:06:39.515Z,17.95
2023-05-09T09:09:08.485Z,17.13
2023-05-09T09:11:35.812Z,21.33
2023-05-09T09:14:10.163Z,18.98
2023-05-09T09:16:36.942Z,20.20
2023-05-09T09:19:09.788Z,18.90
2023-05-09T09:21:36.518Z,17.38
2023-05-09T09:24:03.278Z,19.92
2023-05-09T09:26:32.404Z,20.10
2023-05-09T09:28:58.840Z,18.42
2023-05-09T09:31:27.389Z,18.80
2023-05-09T09:34:03.587Z,20.50
2023-05-09T09:36:32.355Z,29.60
2023-05-09T09:39:00.468Z,17.25
2023-05-09T09:41:40.528Z,17.60
2023-05-09T09:44:18.327Z,16.02
2023-05-09T09:46:49.122Z,17.48
2023-05-09T09:49:17.084Z,19.38
2023-05-09T09:51:44.272Z,17.38
2023-05-09T09:54:13.263Z,17.67
2023-05-09T09:56:45.527Z,20.10
2023-05-09T09:59:23.698Z,55.78
2023-05-09T10:02:02.922Z,15.93
2023-05-09T10:04:36.898Z,17.92
2023-05-09T10:07:05.934Z,19.17
2023-05-09T10:09:34.065Z,16.23
2023-05-09T10:12:06.567Z,15.70
2023-05-09T10:14:35.603Z,17.42
2023-05-09T10:17:04.387Z,15.98
2023-05-09T10:19:31.813Z,21.00
2023-05-09T10:22:05.258Z,18.33
2023-05-09T10:24:42.554Z,16.85
2023-05-09T10:27:13.608Z,16.73
2023-05-09T10:29:55.308Z,19.02
2023-05-09T10:32:27.814Z,16.48
2023-05-09T10:35:01.208Z,16.90
2023-05-09T10:37:28.482Z,16.65
2023-05-09T10:39:55.577Z,17.40
2023-05-09T10:42:23.844Z,15.25
2023-05-09T10:44:51.788Z,15.48
2023-05-09T10:47:18.956Z,16.73
2023-05-09T10:49:45.995Z,14.88
2023-05-09T10:52:12.773Z,13.18
2023-05-09T10:54:39.220Z,16.63
2023-05-09T10:57:08.990Z,13.90
2023-05-09T10:59:36.444Z,14.55
2023-05-09T11:02:04.108Z,15.27
2023-05-09T11:04:32.429Z,14.18
2023-05-09T11:07:00.524Z,14.63
2023-05-09T11:09:30.466Z,15.35
2023-05-09T11:12:06.294Z,14.93
2023-05-09T11:14:34.052Z,12.85
2023-05-09T11:17:03.055Z,12.45
2023-05-09T11:19:37.082Z,13.02
2023-05-09T11:22:34.167Z,18.40
2023-05-09T11:25:04.957Z,11.57
2023-05-09T11:27:49.419Z,14.10
2023-05-09T11:30:19.144Z,12.95
2023-05-09T11:32:53.852Z,12.95
2023-05-09T11:35:23.989Z,14.27
2023-05-09T11:37:54.909Z,14.05
2023-05-09T11:40:22.444Z,12.82
2023-05-09T11:42:55.423Z,12.50
2023-05-09T11:45:26.706Z,12.68
2023-05-09T11:47:54.293Z,7.40
2023-05-09T11:50:21.567Z,10.43
2023-05-09T11:52:48.783Z,13.27
2023-05-09T11:55:17.664Z,11.75
2023-05-09T11:57:49.373Z,9.05
2023-05-09T12:00:20.977Z,9.48
2023-05-09T12:02:47.800Z,14.18
2023-05-09T12:05:16.259Z,11.63
2023-05-09T12:07:43.557Z,8.77
2023-05-09T12:10:14.440Z,6.40
2023-05-09T12:12:49.402Z,7.95
2023-05-09T12:15:17.845Z,9.40
2023-05-09T12:17:47.136Z,10.85
2023-05-09T12:20:14.695Z,8.50
2023-05-09T12:22:43.631Z,8.88
2023-05-09T12:25:11.684Z,9.38
2023-05-09T12:27:39.811Z,8.98
2023-05-09T12:30:09.872Z,13.52
2023-05-09T12:32:39.274Z,8.88
2023-05-09T12:35:10.923Z,5.68
2023-05-09T12:37:37.743Z,7.55
2023-05-09T12:40:05.348Z,6.82
2023-05-09T12:42:33.136Z,7.57
2023-05-09T12:45:01.931Z,8.55
2023-05-09T12:47:31.668Z,8.30
2023-05-09T12:50:06.418Z,7.03
2023-05-09T12:53:01.379Z,6.85
2023-05-09T12:55:30.732Z,10.75
2023-05-09T12:57:59.809Z,9.75
2023-05-09T13:00:26.285Z,7.50
2023-05-09T13:02:53.065Z,9.45
2023-05-09T13:05:22.139Z,6.68
2023-05-09T13:07:52.392Z,6.03
2023-05-09T13:10:28.749Z,7.93
2023-05-09T13:12:55.124Z,8.18
2023-05-09T13:15:23.464Z,6.05
2023-05-09T13:17:51.436Z,5.47
2023-05-09T13:20:19.198Z,9.90
2023-05-09T13:22:46.780Z,4.88
2023-05-09T13:25:13.616Z,18.42
2023-05-09T13:27:40.000Z,14.10
2023-05-09T13:30:10.479Z,6.32
2023-05-09T13:32:36.904Z,4.60
2023-05-09T13:35:06.456Z,3.97
2023-05-09T13:37:33.371Z,3.30
2023-05-09T13:39:59.702Z,3.92
2023-05-09T13:42:26.587Z,4.70
2023-05-09T13:44:53.476Z,4.50
2023-05-09T13:47:19.799Z,7.10
2023-05-09T13:49:46.131Z,4.38
2023-05-09T13:52:14.664Z,3.70
2023-05-09T13:54:41.132Z,4.18
2023-05-09T13:57:07.833Z,2.88
2023-05-09T13:59:34.918Z,4.82
2023-05-09T14:02:01.463Z,4.35
2023-05-09T14:04:29.541Z,5.95
2023-05-09T14:06:56.451Z,4.30
2023-05-09T14:09:23.216Z,5.30
2023-05-09T14:11:53.037Z,5.05
2023-05-09T14:14:21.666Z,7.22
2023-05-09T14:16:48.401Z,6.15
2023-05-09T14:19:15.818Z,4.80
2023-05-09T14:21:43.720Z,4.80
2023-05-09T14:24:14.242Z,4.78
2023-05-09T14:26:42.173Z,8.50
2023-05-09T14:29:08.899Z,9.00
2023-05-09T14:31:35.268Z,6.32
2023-05-09T14:34:01.696Z,5.88
2023-05-09T14:36:29.129Z,5.45
2023-05-09T14:38:55.509Z,7.97
2023-05-09T14:41:22.692Z,7.40
2023-05-09T14:43:49.098Z,7.20
2023-05-09T14:46:15.539Z,8.15
2023-05-09T14:48:42.320Z,5.85
2023-05-09T14:51:08.690Z,6.57
2023-05-09T14:53:39.910Z,9.02
2023-05-09T14:56:10.756Z,7.68
2023-05-09T14:58:37.423Z,7.57
2023-05-09T15:01:05.039Z,7.32
2023-05-09T15:03:31.576Z,8.52
2023-05-09T15:06:01.437Z,7.75
2023-05-09T15:08:28.534Z,6.80
2023-05-09T15:10:54.918Z,6.93
2023-05-09T15:13:21.616Z,7.60
2023-05-09T15:15:48.711Z,8.80
2023-05-09T15:18:16.841Z,6.88
2023-05-09T15:20:43.459Z,8.07
2023-05-09T15:23:11.235Z,7.97
2023-05-09T15:25:37.680Z,7.68
2023-05-09T15:28:04.259Z,7.45
2023-05-09T15:30:30.963Z,8.75
2023-05-09T15:32:57.445Z,7.78
2023-05-09T15:35:23.965Z,11.18
2023-05-09T15:37:50.763Z,5.53
2023-05-09T15:40:17.302Z,7.32
2023-05-09T15:42:43.848Z,13.45
2023-05-09T15:45:10.751Z,8.05
2023-05-09T15:47:37.236Z,8.77
2023-05-09T15:50:04.446Z,7.10
2023-05-09T15:52:31.305Z,6.90
2023-05-09T15:54:57.964Z,9.05
2023-05-09T15:57:24.964Z,9.90
2023-05-09T15:59:54.653Z,7.72
2023-05-09T16:02:22.531Z,8.38
2023-05-09T16:04:48.951Z,8.23
2023-05-09T16:07:15.334Z,7.50
2023-05-09T16:09:43.450Z,9.25
2023-05-09T16:12:09.927Z,6.30
2023-05-09T16:14:36.859Z,6.88
2023-05-09T16:17:04.015Z,8.40
2023-05-09T16:19:30.930Z,6.75
2023-05-09T16:21:57.337Z,6.95
2023-05-09T16:24:24.012Z,6.55
2023-05-09T16:26:50.414Z,7.28
2023-05-09T16:29:16.762Z,6.78
2023-05-09T16:31:45.396Z,6.78
2023-05-09T16:34:11.950Z,7.90
2023-05-09T16:36:39.353Z,6.10
2023-05-09T16:39:07.806Z,6.32
2023-05-09T16:41:34.145Z,8.35
2023-05-09T16:44:00.514Z,6.05
2023-05-09T16:46:26.891Z,6.70
2023-05-09T16:48:53.362Z,6.65
2023-05-09T16:51:19.743Z,7.47
2023-05-09T16:53:46.661Z,7.45
2023-05-09T16:56:13.297Z,6.95
2023-05-09T16:58:39.682Z,11.63
2023-05-09T17:01:07.068Z,8.68
2023-05-09T17:03:33.415Z,8.73
2023-05-09T17:05:59.766Z,7.57
2023-05-09T17:08:26.560Z,7.50
2023-05-09T17:10:53.537Z,9.95
2023-05-09T17:13:20.001Z,7.68
2023-05-09T17:15:46.514Z,10.82
2023-05-09T17:18:17.048Z,8.90
2023-05-09T17:20:46.100Z,8.60
2023-05-09T17:23:12.484Z,9.20
2023-05-09T17:25:39.291Z,10.68
2023-05-09T17:28:05.658Z,10.93
2023-05-09T17:30:32.281Z,11.77
2023-05-09T17:32:59.128Z,10.95
2023-05-09T17:35:25.881Z,9.82
2023-05-09T17:37:52.238Z,10.98
2023-05-09T17:40:19.114Z,9.90
2023-05-09T17:42:45.439Z,13.13
2023-05-09T17:45:12.835Z,10.45
2023-05-09T17:47:39.315Z,8.73
2023-05-09T17:50:07.152Z,8.38
2023-05-09T17:52:34.268Z,9.55
2023-05-09T17:55:01.889Z,7.18
2023-05-09T17:57:28.247Z,7.65
2023-05-09T17:59:54.605Z,7.68
2023-05-09T18:02:24.278Z,6.82
2023-05-09T18:04:51.113Z,6.80
2023-05-09T18:07:17.806Z,6.55
2023-05-09T18:09:44.138Z,5.95
2023-05-09T18:12:10.546Z,9.02
2023-05-09T18:14:39.593Z,6.20
2023-05-09T18:17:05.915Z,6.55
2023-05-09T18:19:33.075Z,9.57
2023-05-09T18:21:59.937Z,5.22
2023-05-09T18:24:26.301Z,5.57
2023-05-09T18:26:52.721Z,4.85
2023-05-09T18:29:20.003Z,4.20
2023-05-09T18:31:46.435Z,4.88
2023-05-09T18:34:13.005Z,7.70
2023-05-09T18:36:39.898Z,4.70
2023-05-09T18:39:06.232Z,5.50
2023-05-09T18:41:33.852Z,4.32
2023-05-09T18:44:00.772Z,4.80
2023-05-09T18:46:27.861Z,4.68
2023-05-09T18:48:54.661Z,4.60
2023-05-09T18:51:21.887Z,7.00
2023-05-09T18:53:48.401Z,5.72
2023-05-09T18:56:14.814Z,7.60
2023-05-09T18:58:41.864Z,4.28
2023-05-09T19:01:11.323Z,8.77
2023-05-09T19:03:44.123Z,6.72
2023-05-09T19:06:12.844Z,11.02
2023-05-09T19:08:43.215Z,6.20
2023-05-09T19:11:11.851Z,15.23
2023-05-09T19:13:40.015Z,12.07
2023-05-09T19:16:07.702Z,7.70
2023-05-09T19:18:35.084Z,6.85
2023-05-09T19:21:01.596Z,8.05
2023-05-09T19:23:28.134Z,8.27
2023-05-09T19:25:55.268Z,6.82
2023-05-09T19:28:22.863Z,5.78
2023-05-09T19:30:50.391Z,7.63
2023-05-09T19:33:17.056Z,6.28
2023-05-09T19:35:44.115Z,6.47
2023-05-09T19:38:13.397Z,6.28
2023-05-09T19:40:40.178Z,10.65
2023-05-09T19:43:07.083Z,7.35
2023-05-09T19:45:33.407Z,9.85
2023-05-09T19:47:59.797Z,7.28
2023-05-09T19:50:26.860Z,4.95
2023-05-09T19:52:53.191Z,5.78
2023-05-09T19:55:19.579Z,7.53
2023-05-09T19:57:46.305Z,10.00
2023-05-09T20:00:14.174Z,6.60
2023-05-09T20:02:41.670Z,3.28
2023-05-09T20:05:08.488Z,5.15
2023-05-09T20:07:34.798Z,3.80
2023-05-09T20:10:01.658Z,4.03
2023-05-09T20:12:30.160Z,6.13
2023-05-09T20:14:56.897Z,5.78
2023-05-09T20:17:23.330Z,4.68
2023-05-09T20:19:50.098Z,4.60
2023-05-09T20:22:16.749Z,5.38
2023-05-09T20:24:43.130Z,5.18
2023-05-09T20:27:10.007Z,5.97
2023-05-09T20:29:36.365Z,4.75
2023-05-09T20:32:02.814Z,5.38
2023-05-09T20:34:29.629Z,6.80
2023-05-09T20:36:55.937Z,4.25
2023-05-09T20:39:23.097Z,4.22
2023-05-09T20:41:50.804Z,4.63
2023-05-09T20:44:18.974Z,4.30
2023-05-09T20:46:45.616Z,3.97
2023-05-09T20:49:12.989Z,4.45
2023-05-09T20:51:39.523Z,4.97
2023-05-09T20:54:05.985Z,5.03
2023-05-09T20:56:35.772Z,4.50
2023-05-09T20:59:03.727Z,4.43
2023-05-09T21:01:37.484Z,4.05
2023-05-09T21:04:05.473Z,3.87
2023-05-09T21:06:33.362Z,4.75
2023-05-09T21:09:00.135Z,4.75
2023-05-09T21:11:26.462Z,5.22
2023-05-09T21:13:53.251Z,5.65
2023-05-09T21:16:19.585Z,4.38
2023-05-09T21:18:46.144Z,4.63
2023-05-09T21:21:13.146Z,3.78
2023-05-09T21:23:39.558Z,5.13
2023-05-09T21:26:05.899Z,6.38
2023-05-09T21:28:33.265Z,3.78
2023-05-09T21:31:01.466Z,4.90
2023-05-09T21:33:27.948Z,3.30
2023-05-09T21:35:54.865Z,2.95
2023-05-09T21:38:21.208Z,3.33
2023-05-09T21:40:47.552Z,4.20
2023-05-09T21:43:15.739Z,4.10
2023-05-09T21:45:42.080Z,2.67
2023-05-09T21:48:08.422Z,3.33
2023-05-09T21:50:35.225Z,3.40
2023-05-09T21:53:01.997Z,3.92
2023-05-09T21:55:28.420Z,3.17
2023-05-09T21:57:54.822Z,2.88
2023-05-09T22:00:21.553Z,6.03
2023-05-09T22:02:48.102Z,3.65
2023-05-09T22:05:14.857Z,3.88
2023-05-09T22:07:41.183Z,4.25
2023-05-09T22:10:08.163Z,3.80
2023-05-09T22:12:34.897Z,4.88
2023-05-09T22:15:01.745Z,3.17
2023-05-09T22:17:28.084Z,5.53
2023-05-09T22:19:54.429Z,4.18
2023-05-09T22:22:21.724Z,3.65
2023-05-09T22:24:49.537Z,5.13
2023-05-09T22:27:15.931Z,4.03
2023-05-09T22:29:42.795Z,5.15
2023-05-09T22:32:09.295Z,4.00
2023-05-09T22:34:35.773Z,5.10
2023-05-09T22:37:02.511Z,4.47
2023-05-09T22:39:29.674Z,3.20
2023-05-09T22:41:56.189Z,4.28
2023-05-09T22:44:23.003Z,5.07
2023-05-09T22:46:49.409Z,4.57
2023-05-09T22:49:15.854Z,5.05
2023-05-09T22:51:42.570Z,4.55
2023-05-09T22:54:09.016Z,5.57
2023-05-09T22:56:35.367Z,4.63
2023-05-09T22:59:01.923Z,5.40
2023-05-09T23:01:28.289Z,5.00
2023-05-09T23:03:55.023Z,5.50
2023-05-09T23:06:21.337Z,4.00
2023-05-09T23:08:48.436Z,4.25
2023-05-09T23:11:15.156Z,4.65
2023-05-09T23:13:42.150Z,5.00
2023-05-09T23:16:09.004Z,4.28
2023-05-09T23:18:35.698Z,4.32
2023-05-09T23:21:02.040Z,4.80
2023-05-09T23:23:29.072Z,3.78
2023-05-09T23:25:55.387Z,4.90
2023-05-09T23:28:24.960Z,4.00
2023-05-09T23:30:53.592Z,4.13
2023-05-09T23:33:20.315Z,4.60
2023-05-09T23:35:47.385Z,4.70
2023-05-09T23:38:14.410Z,3.47
2023-05-09T23:40:44.085Z,5.50
2023-05-09T23:43:10.393Z,3.45
2023-05-09T23:45:37.089Z,4.10
2023-05-09T23:48:03.998Z,3.22
2023-05-09T23:50:30.981Z,3.63
2023-05-09T23:52:57.309Z,3.00
2023-05-09T23:55:24.554Z,2.85
2023-05-09T23:57:50.882Z,3.45
